createdAt,value
2019-03-22T00:00:45.731Z,80.90
2019-03-22T00:03:11.898Z,81.72
2019-03-22T00:05:38.034Z,62.58
2019-03-22T00:08:04.157Z,51.55
2019-03-22T00:10:30.309Z,51.48
2019-03-22T00:12:56.539Z,33.42
2019-03-22T00:15:22.667Z,51.40
2019-03-22T00:17:48.731Z,42.55
2019-03-22T00:20:14.846Z,23.85
2019-03-22T00:22:41.203Z,24.20
2019-03-22T00:25:08.768Z,81.10
2019-03-22T00:27:34.900Z,25.50
2019-03-22T00:30:01.025Z,26.27
2019-03-22T00:32:27.152Z,21.97
2019-03-22T00:34:53.320Z,65.25
2019-03-22T00:37:19.440Z,118.30
2019-03-22T00:39:45.595Z,62.40
2019-03-22T00:42:11.706Z,24.72
2019-03-22T00:44:37.831Z,48.48
2019-03-22T00:47:03.962Z,34.03
2019-03-22T00:49:30.124Z,30.62
2019-03-22T00:51:56.247Z,31.48
2019-03-22T00:54:22.397Z,45.95
2019-03-22T00:56:48.440Z,19.48
2019-03-22T00:59:14.461Z,59.03
2019-03-22T01:01:40.591Z,53.50
2019-03-22T01:04:06.724Z,24.98
2019-03-22T01:06:32.858Z,18.50
2019-03-22T01:08:59.281Z,26.35
2019-03-22T01:11:25.429Z,124.65
2019-03-22T01:13:51.546Z,145.55
2019-03-22T01:16:17.669Z,46.48
2019-03-22T01:18:43.689Z,30.75
2019-03-22T01:21:09.916Z,20.45
2019-03-22T01:23:35.924Z,19.15
2019-03-22T01:26:02.062Z,48.48
2019-03-22T01:28:28.096Z,45.98
2019-03-22T01:30:54.167Z,18.98
2019-03-22T01:33:23.853Z,21.68
2019-03-22T01:35:49.926Z,23.62
2019-03-22T01:38:16.126Z,25.52
2019-03-22T01:40:42.159Z,18.48
2019-03-22T01:43:08.288Z,20.62
2019-03-22T01:45:34.424Z,10.58
2019-03-22T01:48:00.587Z,16.75
2019-03-22T01:50:26.724Z,13.43
2019-03-22T01:52:52.902Z,13.28
2019-03-22T01:55:18.923Z,84.75
2019-03-22T01:57:53.085Z,58.42
2019-03-22T02:00:14.308Z,10.50
2019-03-22T02:02:40.420Z,57.58
2019-03-22T02:05:06.558Z,29.72
2019-03-22T02:07:32.683Z,24.35
2019-03-22T02:09:58.729Z,17.45
2019-03-22T02:12:24.747Z,48.05
2019-03-22T02:14:50.781Z,13.60
2019-03-22T02:17:16.913Z,12.90
2019-03-22T02:19:43.076Z,15.38
2019-03-22T02:22:10.277Z,14.28
2019-03-22T02:24:36.331Z,12.95
2019-03-22T02:27:02.492Z,13.58
2019-03-22T02:29:30.818Z,13.13
2019-03-22T02:31:56.780Z,20.02
2019-03-22T02:34:22.794Z,13.43
2019-03-22T02:36:48.848Z,24.20
2019-03-22T02:39:15.089Z,13.78
2019-03-22T02:41:41.338Z,10.72
2019-03-22T02:44:07.484Z,13.28
2019-03-22T02:46:33.614Z,20.35
2019-03-22T02:48:59.746Z,13.25
2019-03-22T02:51:25.792Z,15.70
2019-03-22T02:53:51.930Z,18.80
2019-03-22T02:56:18.057Z,21.75
2019-03-22T02:58:44.188Z,15.05
2019-03-22T03:01:10.500Z,15.78
2019-03-22T03:03:36.677Z,22.70
2019-03-22T03:06:02.925Z,22.02
2019-03-22T03:08:29.049Z,86.17
2019-03-22T03:10:55.181Z,136.70
2019-03-22T03:13:21.306Z,74.22
2019-03-22T03:15:47.446Z,21.80
2019-03-22T03:18:13.670Z,16.87
2019-03-22T03:20:39.804Z,21.45
2019-03-22T03:23:05.888Z,23.90
2019-03-22T03:25:32.052Z,12.82
2019-03-22T03:27:58.092Z,14.33
2019-03-22T03:30:24.230Z,14.60
2019-03-22T03:32:50.492Z,15.45
2019-03-22T03:35:16.915Z,15.80
2019-03-22T03:37:43.046Z,12.45
2019-03-22T03:40:10.283Z,21.17
2019-03-22T03:42:36.422Z,13.60
2019-03-22T03:45:05.795Z,12.53
2019-03-22T03:49:57.905Z,15.25
2019-03-22T03:52:23.970Z,22.35
2019-03-22T03:54:49.994Z,25.40
2019-03-22T03:57:16.143Z,22.05
2019-03-22T03:59:42.273Z,24.40
2019-03-22T04:02:08.408Z,21.12
2019-03-22T04:04:34.524Z,16.95
2019-03-22T04:07:00.781Z,27.58
2019-03-22T04:09:26.926Z,23.25
2019-03-22T04:11:53.052Z,22.52
2019-03-22T04:14:19.124Z,22.15
2019-03-22T04:16:45.155Z,24.60
2019-03-22T04:19:11.210Z,26.48
2019-03-22T04:21:37.334Z,19.55
2019-03-22T04:24:03.472Z,21.85
2019-03-22T04:26:29.496Z,20.60
2019-03-22T04:29:06.549Z,19.02
2019-03-22T04:31:23.698Z,22.95
2019-03-22T04:33:49.714Z,24.02
2019-03-22T04:36:15.964Z,27.40
2019-03-22T04:38:48.300Z,26.00
2019-03-22T04:41:10.135Z,27.37
2019-03-22T04:43:36.301Z,25.72
2019-03-22T04:46:04.652Z,24.43
2019-03-22T04:48:34.396Z,21.45
2019-03-22T04:51:03.830Z,22.40
2019-03-22T04:53:33.546Z,23.98
2019-03-22T04:56:00.475Z,25.82
2019-03-22T04:58:27.437Z,31.23
2019-03-22T05:00:55.267Z,32.40
2019-03-22T05:03:25.965Z,37.40
2019-03-22T05:05:54.913Z,38.35
2019-03-22T05:08:23.965Z,33.63
2019-03-22T05:10:51.400Z,33.98
2019-03-22T05:13:19.243Z,36.98
2019-03-22T05:15:45.872Z,30.62
2019-03-22T05:18:12.008Z,31.70
2019-03-22T05:20:40.143Z,40.15
2019-03-22T05:23:07.580Z,34.08
2019-03-22T05:25:38.964Z,25.62
2019-03-22T05:28:08.506Z,26.45
2019-03-22T05:30:58.245Z,25.10
2019-03-22T05:33:24.362Z,24.90
2019-03-22T05:35:50.395Z,30.32
2019-03-22T05:38:16.524Z,26.20
2019-03-22T05:40:42.659Z,27.90
2019-03-22T05:43:08.755Z,40.25
2019-03-22T05:45:34.796Z,43.17
2019-03-22T05:48:00.815Z,80.62
2019-03-22T05:50:26.860Z,69.62
2019-03-22T05:52:52.921Z,75.05
2019-03-22T05:55:18.953Z,74.95
2019-03-22T05:57:44.976Z,70.52
2019-03-22T06:00:13.007Z,41.83
2019-03-22T06:02:39.182Z,42.75
2019-03-22T06:05:05.939Z,35.40
2019-03-22T06:07:32.100Z,32.67
2019-03-22T06:09:58.167Z,40.92
2019-03-22T06:12:24.337Z,35.80
2019-03-22T06:14:51.749Z,37.30
2019-03-22T06:17:17.909Z,49.33
2019-03-22T06:19:44.062Z,46.05
2019-03-22T06:22:10.436Z,52.78
2019-03-22T06:24:36.561Z,42.62
2019-03-22T06:27:02.701Z,46.85
2019-03-22T06:29:28.902Z,39.45
2019-03-22T06:31:56.296Z,31.35
2019-03-22T06:34:22.516Z,46.10
2019-03-22T06:36:48.730Z,51.88
2019-03-22T06:39:14.873Z,45.33
2019-03-22T06:41:40.990Z,41.00
2019-03-22T06:44:07.287Z,34.85
2019-03-22T06:46:33.529Z,31.57
2019-03-22T06:48:59.794Z,44.35
2019-03-22T06:51:25.841Z,42.05
2019-03-22T06:53:56.511Z,36.80
2019-03-22T06:56:22.708Z,26.00
2019-03-22T06:58:48.959Z,31.37
2019-03-22T07:01:15.217Z,36.23
2019-03-22T07:03:41.507Z,36.53
2019-03-22T07:06:07.759Z,40.52
2019-03-22T07:08:34.021Z,45.67
2019-03-22T07:11:00.265Z,47.03
2019-03-22T07:13:26.729Z,44.95
2019-03-22T07:15:52.995Z,45.00
2019-03-22T07:18:19.323Z,39.85
2019-03-22T07:20:45.463Z,49.70
2019-03-22T07:23:11.604Z,38.53
2019-03-22T07:25:37.895Z,43.90
2019-03-22T07:28:05.563Z,44.27
2019-03-22T07:30:31.937Z,46.53
2019-03-22T07:32:58.078Z,41.13
2019-03-22T07:35:24.099Z,48.00
2019-03-22T07:37:50.229Z,40.90
2019-03-22T07:40:16.376Z,42.25
2019-03-22T07:42:43.241Z,34.50
2019-03-22T07:45:10.402Z,38.30
2019-03-22T07:47:36.541Z,34.80
2019-03-22T07:50:08.271Z,33.33
2019-03-22T07:52:34.394Z,38.55
2019-03-22T07:55:00.546Z,31.62
2019-03-22T07:57:26.942Z,36.68
2019-03-22T07:59:53.066Z,34.55
2019-03-22T08:02:19.335Z,32.93
2019-03-22T08:04:45.466Z,25.43
2019-03-22T08:07:11.607Z,35.90
2019-03-22T08:09:37.586Z,40.38
2019-03-22T08:12:03.880Z,35.75
2019-03-22T08:14:29.917Z,34.67
2019-03-22T08:17:06.513Z,31.52
2019-03-22T08:19:24.158Z,30.55
2019-03-22T08:21:50.374Z,23.30
2019-03-22T08:24:16.430Z,23.25
2019-03-22T08:26:42.829Z,27.22
2019-03-22T08:29:08.983Z,27.42
2019-03-22T08:31:34.911Z,25.72
2019-03-22T08:34:01.019Z,26.60
2019-03-22T08:36:27.142Z,28.83
2019-03-22T08:38:53.203Z,21.97
2019-03-22T08:41:19.399Z,15.98
2019-03-22T08:43:45.611Z,24.40
2019-03-22T08:46:11.648Z,19.05
2019-03-22T08:48:37.872Z,21.70
2019-03-22T08:51:03.972Z,25.57
2019-03-22T08:53:30.137Z,25.25
2019-03-22T08:55:56.272Z,24.80
2019-03-22T08:58:22.294Z,22.13
2019-03-22T09:00:57.307Z,26.52
2019-03-22T09:03:17.698Z,29.30
2019-03-22T09:05:45.284Z,24.45
2019-03-22T09:08:11.811Z,27.30
2019-03-22T09:10:38.139Z,32.05
2019-03-22T09:13:04.328Z,26.00
2019-03-22T09:15:40.742Z,30.15
2019-03-22T09:18:01.544Z,38.63
2019-03-22T09:20:29.848Z,30.25
2019-03-22T09:22:55.977Z,33.48
2019-03-22T09:25:22.227Z,37.42
2019-03-22T09:27:48.423Z,37.00
2019-03-22T09:30:14.842Z,40.12
2019-03-22T09:32:41.111Z,33.65
2019-03-22T09:35:07.649Z,39.00
2019-03-22T09:37:33.874Z,38.17
2019-03-22T09:40:00.470Z,41.20
2019-03-22T09:42:26.819Z,45.00
2019-03-22T09:44:53.989Z,39.15
2019-03-22T09:47:20.260Z,41.37
2019-03-22T09:49:46.532Z,50.28
2019-03-22T09:52:12.856Z,52.25
2019-03-22T09:54:39.134Z,45.23
2019-03-22T09:57:05.526Z,43.68
2019-03-22T09:59:31.611Z,42.83
2019-03-22T10:01:57.826Z,51.13
2019-03-22T10:04:24.190Z,74.22
2019-03-22T10:06:50.330Z,52.13
2019-03-22T10:09:16.612Z,46.10
2019-03-22T10:11:42.856Z,44.48
2019-03-22T10:14:11.797Z,49.05
2019-03-22T10:16:38.088Z,49.42
2019-03-22T10:19:07.362Z,48.58
2019-03-22T10:21:33.664Z,53.08
2019-03-22T10:23:59.817Z,58.28
2019-03-22T10:26:28.845Z,53.75
2019-03-22T10:28:55.200Z,50.92
2019-03-22T10:31:21.411Z,44.42
2019-03-22T10:33:47.555Z,59.20
2019-03-22T10:36:13.716Z,59.60
2019-03-22T10:38:41.422Z,43.42
2019-03-22T10:41:07.551Z,45.70
2019-03-22T10:43:33.811Z,46.18
2019-03-22T10:46:00.075Z,54.05
2019-03-22T10:48:26.270Z,61.92
2019-03-22T10:50:52.448Z,50.33
2019-03-22T10:53:18.698Z,52.45
2019-03-22T10:55:44.826Z,49.08
2019-03-22T10:58:20.890Z,46.65
2019-03-22T11:00:39.097Z,44.65
2019-03-22T11:03:05.211Z,46.77
2019-03-22T11:05:31.826Z,51.73
2019-03-22T11:07:57.981Z,50.90
2019-03-22T11:10:24.234Z,51.65
2019-03-22T11:12:50.515Z,52.70
2019-03-22T11:15:16.798Z,53.80
2019-03-22T11:17:43.046Z,44.10
2019-03-22T11:20:12.239Z,48.83
2019-03-22T11:22:41.422Z,41.70
2019-03-22T11:25:08.212Z,43.38
2019-03-22T11:27:34.549Z,43.52
2019-03-22T11:30:03.312Z,43.42
2019-03-22T11:32:29.567Z,39.83
2019-03-22T11:34:55.770Z,37.00
2019-03-22T11:37:22.032Z,41.95
2019-03-22T11:39:48.198Z,40.35
2019-03-22T11:42:16.350Z,38.70
2019-03-22T11:44:42.472Z,47.23
2019-03-22T11:47:08.853Z,35.83
2019-03-22T11:49:35.167Z,42.13
2019-03-22T11:52:01.318Z,40.78
2019-03-22T11:54:30.415Z,40.67
2019-03-22T11:56:58.490Z,36.58
2019-03-22T11:59:24.760Z,44.67
2019-03-22T12:01:51.059Z,40.23
2019-03-22T12:04:17.304Z,46.30
2019-03-22T12:06:43.649Z,40.65
2019-03-22T12:09:09.975Z,44.53
2019-03-22T12:11:38.034Z,38.02
2019-03-22T12:14:04.220Z,39.55
2019-03-22T12:16:30.542Z,40.73
2019-03-22T12:18:56.856Z,47.05
2019-03-22T12:21:23.064Z,40.67
2019-03-22T12:23:49.200Z,39.55
2019-03-22T12:26:16.849Z,41.63
2019-03-22T12:28:43.003Z,39.42
2019-03-22T12:31:10.928Z,45.70
2019-03-22T12:33:37.514Z,37.35
2019-03-22T12:36:07.198Z,43.45
2019-03-22T12:38:33.782Z,34.92
2019-03-22T12:41:06.176Z,32.55
2019-03-22T12:43:46.081Z,31.37
2019-03-22T12:50:01.422Z,32.33
2019-03-22T12:52:27.795Z,21.93
2019-03-22T12:54:57.873Z,22.67
2019-03-22T12:57:32.494Z,18.98
2019-03-22T13:00:04.563Z,17.67
2019-03-22T13:02:41.847Z,20.77
2019-03-22T13:05:00.678Z,21.57
2019-03-22T13:07:26.935Z,23.20
2019-03-22T13:09:53.274Z,22.05
2019-03-22T13:12:19.607Z,18.70
2019-03-22T13:14:45.970Z,31.75
2019-03-22T13:17:17.424Z,15.78
2019-03-22T13:19:43.876Z,26.93
2019-03-22T13:22:10.374Z,22.15
2019-03-22T13:24:36.804Z,21.07
2019-03-22T13:27:03.124Z,19.10
2019-03-22T13:29:29.576Z,23.38
2019-03-22T13:31:55.849Z,18.20
2019-03-22T13:34:22.029Z,23.30
2019-03-22T13:36:48.070Z,28.15
2019-03-22T13:39:14.066Z,27.48
2019-03-22T13:41:41.894Z,18.17
2019-03-22T13:44:08.281Z,19.55
2019-03-22T13:46:40.601Z,22.93
2019-03-22T13:49:05.975Z,34.43
2019-03-22T13:51:32.282Z,30.57
2019-03-22T13:54:01.569Z,25.57
2019-03-22T13:58:54.071Z,23.32
2019-03-22T14:01:23.262Z,26.62
2019-03-22T14:03:49.727Z,24.60
2019-03-22T14:06:17.509Z,29.57
2019-03-22T14:08:44.040Z,29.98
2019-03-22T14:11:10.414Z,24.57
2019-03-22T14:13:37.176Z,27.67
2019-03-22T14:16:03.760Z,23.85
2019-03-22T14:18:32.466Z,26.55
2019-03-22T14:21:48.379Z,31.47
2019-03-22T14:24:18.130Z,28.60
2019-03-22T14:26:48.299Z,33.48
2019-03-22T14:30:10.151Z,27.22
2019-03-22T14:31:51.383Z,46.58
2019-03-22T14:34:17.639Z,39.45
2019-03-22T14:36:44.009Z,46.68
2019-03-22T14:39:10.265Z,44.08
2019-03-22T14:41:36.565Z,39.35
2019-03-22T14:44:04.218Z,59.40
2019-03-22T14:46:32.447Z,36.40
2019-03-22T14:49:00.532Z,39.88
2019-03-22T14:51:26.819Z,43.13
2019-03-22T14:53:53.075Z,40.45
2019-03-22T14:56:19.492Z,54.55
2019-03-22T14:58:45.930Z,44.40
2019-03-22T15:01:36.108Z,42.88
2019-03-22T15:04:02.565Z,40.95
2019-03-22T15:06:29.302Z,47.83
2019-03-22T15:08:57.415Z,42.17
2019-03-22T15:11:24.004Z,42.35
2019-03-22T15:13:52.277Z,46.77
2019-03-22T15:16:20.433Z,51.05
2019-03-22T15:19:04.031Z,55.35
2019-03-22T15:21:49.024Z,51.08
2019-03-22T15:24:26.383Z,47.67
2019-03-22T15:27:09.666Z,50.28
2019-03-22T15:30:00.708Z,49.73
2019-03-22T15:32:37.994Z,171.10
2019-03-22T15:35:07.031Z,69.80
2019-03-22T15:37:47.716Z,60.25
2019-03-22T15:45:43.462Z,112.92
2019-03-22T15:48:10.506Z,127.75
2019-03-22T15:50:39.403Z,97.67
2019-03-22T15:53:32.427Z,70.92
2019-03-22T15:56:00.973Z,67.80
2019-03-22T15:58:27.275Z,113.80
2019-03-22T16:00:59.574Z,70.92
2019-03-22T16:03:26.223Z,73.52
2019-03-22T16:05:52.742Z,69.72
2019-03-22T16:08:19.288Z,111.42
2019-03-22T16:11:24.229Z,97.78
2019-03-22T16:13:46.449Z,97.88
2019-03-22T16:16:12.694Z,79.10
2019-03-22T16:18:38.819Z,67.82
2019-03-22T16:21:05.076Z,64.70
2019-03-22T16:23:31.267Z,72.53
2019-03-22T16:25:57.389Z,76.72
2019-03-22T16:28:23.697Z,73.62
2019-03-22T16:30:49.846Z,78.67
2019-03-22T16:33:15.992Z,75.50
2019-03-22T16:35:42.271Z,66.12
2019-03-22T16:38:08.511Z,86.75
2019-03-22T16:40:34.747Z,71.02
2019-03-22T16:43:00.900Z,72.75
2019-03-22T16:45:35.396Z,79.60
2019-03-22T16:48:01.658Z,71.80
2019-03-22T16:50:27.837Z,75.47
2019-03-22T16:52:54.021Z,91.10
2019-03-22T16:55:24.116Z,69.10
2019-03-22T16:57:50.636Z,68.12
2019-03-22T17:00:19.143Z,62.10
2019-03-22T17:02:45.633Z,66.20
2019-03-22T17:05:11.774Z,56.80
2019-03-22T17:07:38.067Z,57.50
2019-03-22T17:10:06.406Z,61.90
2019-03-22T17:12:32.820Z,67.53
2019-03-22T17:14:59.292Z,56.65
2019-03-22T17:17:25.485Z,66.92
2019-03-22T17:19:51.953Z,64.53
2019-03-22T17:22:18.369Z,75.85
2019-03-22T17:24:44.743Z,67.20
2019-03-22T17:27:11.205Z,68.12
2019-03-22T17:29:39.418Z,61.15
2019-03-22T17:32:05.875Z,59.70
2019-03-22T17:34:32.282Z,52.58
2019-03-22T17:36:58.697Z,56.65
2019-03-22T17:39:25.053Z,54.75
2019-03-22T17:41:54.115Z,51.15
2019-03-22T17:44:20.448Z,60.12
2019-03-22T17:46:46.920Z,61.18
2019-03-22T17:49:13.038Z,68.72
2019-03-22T17:51:39.419Z,64.22
2019-03-22T17:54:07.725Z,60.70
2019-03-22T17:56:34.174Z,80.85
2019-03-22T17:59:00.482Z,66.22
2019-03-22T18:01:27.104Z,64.22
2019-03-22T18:03:53.218Z,60.70
2019-03-22T18:06:19.612Z,60.60
2019-03-22T18:08:46.397Z,68.65
2019-03-22T18:11:12.747Z,64.97
2019-03-22T18:13:39.131Z,57.98
2019-03-22T18:16:05.755Z,61.15
2019-03-22T18:18:32.130Z,75.30
2019-03-22T18:21:00.447Z,74.45
2019-03-22T18:23:35.461Z,60.23
2019-03-22T18:25:55.307Z,55.67
2019-03-22T18:28:21.451Z,71.60
2019-03-22T18:30:47.566Z,66.47
2019-03-22T18:33:13.695Z,71.77
2019-03-22T18:35:39.707Z,76.65
2019-03-22T18:38:05.928Z,58.92
2019-03-22T18:40:32.092Z,55.65
2019-03-22T18:42:58.216Z,60.40
2019-03-22T18:45:24.253Z,88.15
2019-03-22T18:47:50.383Z,51.63
2019-03-22T18:50:16.547Z,65.67
2019-03-22T18:52:42.696Z,59.35
2019-03-22T18:55:09.119Z,58.08
2019-03-22T18:57:35.295Z,52.95
2019-03-22T19:00:01.796Z,49.40
2019-03-22T19:02:27.911Z,38.85
2019-03-22T19:04:54.074Z,57.43
2019-03-22T19:07:20.211Z,36.50
2019-03-22T19:09:46.389Z,55.00
2019-03-22T19:12:12.522Z,29.15
2019-03-22T19:14:38.653Z,44.25
2019-03-22T19:17:04.878Z,31.62
2019-03-22T19:19:31.024Z,34.15
2019-03-22T19:21:57.327Z,35.63
2019-03-22T19:24:23.344Z,29.52
2019-03-22T19:26:51.071Z,32.45
2019-03-22T19:29:17.222Z,36.40
2019-03-22T19:31:43.454Z,33.98
2019-03-22T19:34:09.514Z,36.15
2019-03-22T19:36:35.657Z,41.02
2019-03-22T19:39:01.814Z,38.53
2019-03-22T19:41:27.921Z,31.75
2019-03-22T19:43:54.076Z,27.32
2019-03-22T19:46:20.351Z,41.70
2019-03-22T19:48:46.490Z,37.35
2019-03-22T19:51:12.727Z,30.70
2019-03-22T19:53:38.867Z,27.32
2019-03-22T19:56:04.992Z,29.00
2019-03-22T19:58:31.117Z,25.85
2019-03-22T20:00:57.394Z,29.30
2019-03-22T20:03:23.532Z,37.20
2019-03-22T20:05:49.706Z,28.38
2019-03-22T20:08:15.830Z,32.40
2019-03-22T20:10:41.956Z,28.70
2019-03-22T20:13:08.068Z,31.55
2019-03-22T20:15:34.188Z,27.10
2019-03-22T20:18:00.300Z,33.30
2019-03-22T20:20:26.337Z,30.90
2019-03-22T20:22:52.453Z,31.95
2019-03-22T20:25:18.619Z,32.63
2019-03-22T20:27:44.778Z,33.53
2019-03-22T20:30:15.520Z,28.00
2019-03-22T20:32:41.659Z,38.25
2019-03-22T20:35:16.284Z,31.80
2019-03-22T20:37:37.020Z,29.05
2019-03-22T20:40:05.586Z,28.60
2019-03-22T20:42:31.751Z,28.80
2019-03-22T20:44:58.457Z,24.10
2019-03-22T20:47:24.647Z,26.95
2019-03-22T20:49:50.669Z,25.55
2019-03-22T20:52:16.808Z,24.05
2019-03-22T20:54:42.937Z,22.73
2019-03-22T20:57:09.084Z,27.22
2019-03-22T20:59:35.250Z,31.45
2019-03-22T21:02:01.369Z,28.75
2019-03-22T21:04:27.485Z,28.67
2019-03-22T21:06:53.626Z,26.25
2019-03-22T21:09:19.667Z,28.75
2019-03-22T21:11:45.908Z,37.17
2019-03-22T21:14:11.964Z,33.53
2019-03-22T21:16:38.101Z,45.03
2019-03-22T21:19:04.224Z,156.80
2019-03-22T21:21:36.356Z,98.78
2019-03-22T21:23:58.437Z,40.88
2019-03-22T21:26:24.452Z,34.95
2019-03-22T21:28:55.614Z,21.77
2019-03-22T21:31:21.842Z,48.17
2019-03-22T21:33:47.910Z,67.15
2019-03-22T21:36:14.040Z,65.87
2019-03-22T21:38:40.209Z,64.65
2019-03-22T21:41:06.327Z,56.63
2019-03-22T21:43:32.666Z,32.30
2019-03-22T21:45:59.230Z,23.83
2019-03-22T21:48:25.602Z,25.43
2019-03-22T21:50:52.059Z,20.70
2019-03-22T21:53:18.509Z,30.20
2019-03-22T21:55:44.992Z,24.27
2019-03-22T21:58:14.754Z,26.00
2019-03-22T22:00:41.213Z,32.40
2019-03-22T22:03:07.730Z,34.08
2019-03-22T22:05:33.959Z,31.45
2019-03-22T22:08:03.288Z,20.23
2019-03-22T22:12:55.813Z,48.50
2019-03-22T22:15:21.988Z,44.83
2019-03-22T22:18:01.172Z,27.98
2019-03-22T22:20:28.436Z,24.90
2019-03-22T22:22:47.067Z,21.75
2019-03-22T22:25:13.192Z,24.35
2019-03-22T22:27:39.419Z,25.20
2019-03-22T22:30:06.835Z,26.27
2019-03-22T22:32:32.981Z,32.30
2019-03-22T22:34:59.168Z,23.62
2019-03-22T22:37:25.288Z,30.80
2019-03-22T22:39:51.444Z,27.73
2019-03-22T22:42:17.586Z,26.02
2019-03-22T22:44:43.734Z,44.73
2019-03-22T22:47:09.768Z,34.05
2019-03-22T22:49:35.925Z,40.08
2019-03-22T22:52:02.090Z,40.83
2019-03-22T22:54:28.209Z,38.08
2019-03-22T22:56:54.322Z,38.60
2019-03-22T22:59:21.497Z,37.78
2019-03-22T23:01:47.584Z,47.43
2019-03-22T23:04:13.693Z,30.08
2019-03-22T23:06:39.847Z,44.53
2019-03-22T23:09:06.064Z,44.05
2019-03-22T23:11:32.197Z,44.53
2019-03-22T23:13:58.354Z,32.75
2019-03-22T23:16:36.763Z,29.55
2019-03-22T23:19:02.928Z,37.03
2019-03-22T23:21:29.065Z,35.52
2019-03-22T23:23:55.251Z,33.53
2019-03-22T23:26:21.416Z,31.82
2019-03-22T23:28:47.549Z,31.07
2019-03-22T23:31:13.694Z,29.10
2019-03-22T23:33:39.813Z,28.15
2019-03-22T23:36:05.841Z,32.25
2019-03-22T23:38:31.974Z,21.90
2019-03-22T23:40:57.911Z,26.65
2019-03-22T23:43:24.132Z,26.60
2019-03-22T23:45:50.173Z,27.17
2019-03-22T23:48:16.306Z,27.02
2019-03-22T23:50:42.439Z,20.80
2019-03-22T23:53:08.565Z,26.02
2019-03-22T23:55:34.700Z,20.00
2019-03-22T23:58:00.737Z,26.62
